createdAt,value
2018-09-04T00:00:16.463Z,99.99
2018-09-04T00:01:16.706Z,99.99
2018-09-04T00:02:16.948Z,99.99
2018-09-04T00:03:17.187Z,99.99
2018-09-04T00:04:17.432Z,99.99
2018-09-04T00:05:17.673Z,99.99
2018-09-04T00:06:17.914Z,99.99
2018-09-04T00:07:18.157Z,99.99
2018-09-04T00:08:18.400Z,99.99
2018-09-04T00:09:18.642Z,99.99
2018-09-04T00:10:18.884Z,99.99
2018-09-04T00:11:19.127Z,99.99
2018-09-04T00:12:19.369Z,99.99
2018-09-04T00:13:19.611Z,99.99
2018-09-04T00:14:19.853Z,99.99
2018-09-04T00:15:20.093Z,99.99
2018-09-04T00:16:20.335Z,99.99
2018-09-04T00:17:20.577Z,99.99
2018-09-04T00:18:20.818Z,99.99
2018-09-04T00:19:21.058Z,99.99
2018-09-04T00:20:21.298Z,99.99
2018-09-04T00:21:21.541Z,99.99
2018-09-04T00:22:21.781Z,99.99
2018-09-04T00:23:22.024Z,99.99
2018-09-04T00:24:22.265Z,99.99
2018-09-04T00:25:22.506Z,99.99
2018-09-04T00:26:22.747Z,99.99
2018-09-04T00:27:22.989Z,99.99
2018-09-04T00:28:23.230Z,99.99
2018-09-04T00:29:23.471Z,99.99
2018-09-04T00:30:23.713Z,99.99
2018-09-04T00:31:23.954Z,99.99
2018-09-04T00:32:24.198Z,99.99
2018-09-04T00:33:24.438Z,99.99
2018-09-04T00:34:24.766Z,99.99
2018-09-04T00:35:24.922Z,99.99
2018-09-04T00:36:25.166Z,99.99
2018-09-04T00:37:25.404Z,99.99
2018-09-04T00:38:25.648Z,99.99
2018-09-04T00:39:25.888Z,99.99
2018-09-04T00:40:26.128Z,99.99
2018-09-04T00:41:26.369Z,99.99
2018-09-04T00:42:26.611Z,99.99
2018-09-04T00:43:26.851Z,99.99
2018-09-04T00:44:27.093Z,99.99
2018-09-04T00:45:27.335Z,99.99
2018-09-04T00:46:27.577Z,99.99
2018-09-04T00:47:27.816Z,99.99
2018-09-04T00:48:28.056Z,99.99
2018-09-04T00:49:28.298Z,99.99
2018-09-04T00:50:28.537Z,99.99
2018-09-04T00:51:28.779Z,99.99
2018-09-04T00:52:29.020Z,99.99
2018-09-04T00:53:29.259Z,99.99
2018-09-04T00:54:29.503Z,99.99
2018-09-04T00:55:29.747Z,99.99
2018-09-04T00:56:29.985Z,99.99
2018-09-04T00:57:30.226Z,99.99
2018-09-04T00:58:30.466Z,99.99
2018-09-04T00:59:30.707Z,99.99
2018-09-04T01:00:30.947Z,99.99
2018-09-04T01:01:31.190Z,99.99
2018-09-04T01:02:31.431Z,99.99
2018-09-04T01:03:31.670Z,99.99
2018-09-04T01:04:31.911Z,99.99
2018-09-04T01:05:32.152Z,99.99
2018-09-04T01:06:32.392Z,99.99
2018-09-04T01:07:32.634Z,99.99
2018-09-04T01:08:32.880Z,99.99
2018-09-04T01:09:33.115Z,99.99
2018-09-04T01:10:33.358Z,99.99
2018-09-04T01:11:33.597Z,99.99
2018-09-04T01:12:33.839Z,99.99
2018-09-04T01:13:34.080Z,99.99
2018-09-04T01:14:34.321Z,99.99
2018-09-04T01:15:34.563Z,99.99
2018-09-04T01:16:34.802Z,99.99
2018-09-04T01:17:35.043Z,99.99
2018-09-04T01:18:35.283Z,99.99
2018-09-04T01:35:13.507Z,99.33
2018-09-04T01:35:51.263Z,99.10
2018-09-04T01:36:51.503Z,98.75
2018-09-04T01:37:51.746Z,99.19
2018-09-04T01:38:51.986Z,98.66
2018-09-04T01:39:52.228Z,98.66
2018-09-04T01:40:52.469Z,98.38
2018-09-04T01:41:52.709Z,98.04
2018-09-04T01:42:52.950Z,97.90
2018-09-04T01:43:53.191Z,97.85
2018-09-04T01:44:53.431Z,97.42
2018-09-04T01:45:53.672Z,96.99
2018-09-04T01:46:53.914Z,97.28
2018-09-04T01:47:54.155Z,96.61
2018-09-04T01:48:54.397Z,96.42
2018-09-04T01:49:54.636Z,95.36
2018-09-04T01:50:54.877Z,95.36
2018-09-04T01:51:55.120Z,95.17
2018-09-04T01:52:55.360Z,94.60
2018-09-04T01:53:55.602Z,94.50
2018-09-04T01:54:55.843Z,94.02
2018-09-04T01:55:56.089Z,94.50
2018-09-04T01:56:56.325Z,94.12
2018-09-04T01:57:56.567Z,93.64
2018-09-04T01:58:56.809Z,93.26
2018-09-04T01:59:57.050Z,92.97
2018-09-04T02:00:57.291Z,93.35
2018-09-04T02:01:57.537Z,92.40
2018-09-04T02:02:57.774Z,92.97
2018-09-04T02:03:58.014Z,92.59
2018-09-04T02:04:58.254Z,92.02
2018-09-04T02:05:58.497Z,91.53
2018-09-04T02:06:58.736Z,91.53
2018-09-04T02:07:58.977Z,91.06
2018-09-04T02:08:59.218Z,91.16
2018-09-04T02:09:59.459Z,90.77
2018-09-04T02:10:59.700Z,89.81
2018-09-04T02:11:59.943Z,89.91
2018-09-04T02:13:00.184Z,90.01
2018-09-04T02:14:00.423Z,89.34
2018-09-04T02:15:00.664Z,89.34
2018-09-04T02:16:00.905Z,89.43
2018-09-04T02:17:01.146Z,89.53
2018-09-04T02:18:01.388Z,89.15
2018-09-04T02:19:01.629Z,89.05
2018-09-04T02:20:01.869Z,88.53
2018-09-04T02:21:02.112Z,88.86
2018-09-04T02:22:02.353Z,88.48
2018-09-04T02:23:02.594Z,88.57
2018-09-04T02:24:02.836Z,88.24
2018-09-04T02:25:03.076Z,87.86
2018-09-04T02:26:03.317Z,87.95
2018-09-04T02:27:03.559Z,87.66
2018-09-04T02:28:03.799Z,87.76
2018-09-04T02:29:04.041Z,87.48
2018-09-04T02:30:04.281Z,87.95
2018-09-04T02:31:04.523Z,87.66
2018-09-04T02:32:04.764Z,87.86
2018-09-04T02:33:05.064Z,87.19
2018-09-04T02:34:05.247Z,87.38
2018-09-04T02:35:05.490Z,87.86
2018-09-04T02:36:05.732Z,87.62
2018-09-04T02:37:05.973Z,87.19
2018-09-04T02:38:06.214Z,87.23
2018-09-04T02:39:06.456Z,87.00
2018-09-04T02:40:06.696Z,87.29
2018-09-04T02:41:06.938Z,87.38
2018-09-04T02:42:07.178Z,87.04
2018-09-04T02:43:07.421Z,87.04
2018-09-04T02:44:07.663Z,87.52
2018-09-04T02:45:07.906Z,87.43
2018-09-04T02:46:08.145Z,87.43
2018-09-04T02:47:08.387Z,87.14
2018-09-04T02:48:08.629Z,87.33
2018-09-04T02:49:08.869Z,87.14
2018-09-04T02:50:09.112Z,87.14
2018-09-04T02:51:09.354Z,87.33
2018-09-04T02:52:09.596Z,87.23
2018-09-04T02:53:09.840Z,87.43
2018-09-04T02:54:10.079Z,87.43
2018-09-04T02:55:10.319Z,87.43
2018-09-04T02:56:10.561Z,87.23
2018-09-04T02:57:10.800Z,87.14
2018-09-04T02:58:11.042Z,86.90
2018-09-04T02:59:11.283Z,87.19
2018-09-04T03:00:11.526Z,87.09
2018-09-04T03:01:11.764Z,87.29
2018-09-04T03:02:12.003Z,87.09
2018-09-04T03:03:12.249Z,87.19
2018-09-04T03:04:12.490Z,87.38
2018-09-04T03:05:12.732Z,87.38
2018-09-04T03:06:12.971Z,87.43
2018-09-04T03:07:13.214Z,87.52
2018-09-04T03:08:13.455Z,87.23
2018-09-04T03:09:13.696Z,87.38
2018-09-04T03:10:13.937Z,87.43
2018-09-04T03:11:14.178Z,87.38
2018-09-04T03:12:14.419Z,86.94
2018-09-04T03:13:14.666Z,87.43
2018-09-04T03:14:14.900Z,87.43
2018-09-04T03:15:15.143Z,86.94
2018-09-04T03:16:15.383Z,87.33
2018-09-04T03:17:15.626Z,87.23
2018-09-04T03:18:15.867Z,87.14
2018-09-04T03:19:16.108Z,87.29
2018-09-04T03:20:16.351Z,87.04
2018-09-04T03:21:16.590Z,87.19
2018-09-04T03:22:16.832Z,86.80
2018-09-04T03:23:17.095Z,87.38
2018-09-04T03:24:17.316Z,87.48
2018-09-04T03:25:17.560Z,87.09
2018-09-04T03:26:17.800Z,87.00
2018-09-04T03:27:18.042Z,87.48
2018-09-04T03:28:18.283Z,87.48
2018-09-04T03:29:18.524Z,87.48
2018-09-04T03:30:18.768Z,87.38
2018-09-04T03:31:19.006Z,87.19
2018-09-04T03:32:19.248Z,87.38
2018-09-04T03:33:19.490Z,86.90
2018-09-04T03:34:19.730Z,87.09
2018-09-04T03:35:19.972Z,87.09
2018-09-04T03:36:20.213Z,87.19
2018-09-04T03:37:20.455Z,87.38
2018-09-04T03:38:20.696Z,87.09
2018-09-04T03:39:20.939Z,87.29
2018-09-04T03:40:21.181Z,87.66
2018-09-04T03:41:21.424Z,87.38
2018-09-04T03:42:21.702Z,87.86
2018-09-04T03:43:21.900Z,87.38
2018-09-04T03:44:22.178Z,87.48
2018-09-04T03:45:22.381Z,87.57
2018-09-04T03:46:22.629Z,87.57
2018-09-04T03:47:22.864Z,87.76
2018-09-04T03:48:23.106Z,87.57
2018-09-04T03:49:23.346Z,87.57
2018-09-04T03:50:23.587Z,87.57
2018-09-04T03:51:23.829Z,87.38
2018-09-04T03:52:24.125Z,87.38
2018-09-04T03:53:24.311Z,87.09
2018-09-04T03:54:24.554Z,87.86
2018-09-04T03:55:24.793Z,87.76
2018-09-04T03:56:25.035Z,87.19
2018-09-04T03:57:25.276Z,87.29
2018-09-04T03:58:25.518Z,87.29
2018-09-04T03:59:25.814Z,87.19
2018-09-04T04:00:26.006Z,87.29
2018-09-04T04:01:26.280Z,87.29
2018-09-04T04:02:26.487Z,87.19
2018-09-04T04:03:26.728Z,87.19
2018-09-04T04:04:26.969Z,87.19
2018-09-04T04:05:27.212Z,87.19
2018-09-04T04:06:27.461Z,87.29
2018-09-04T04:07:27.699Z,87.19
2018-09-04T04:08:27.938Z,87.29
2018-09-04T04:09:28.179Z,87.29
2018-09-04T04:10:28.421Z,87.29
2018-09-04T04:11:28.661Z,87.29
2018-09-04T04:12:28.903Z,87.19
2018-09-04T04:13:29.145Z,87.38
2018-09-04T04:14:29.386Z,87.48
2018-09-04T04:15:29.628Z,87.38
2018-09-04T04:16:29.869Z,87.95
2018-09-04T04:17:30.113Z,87.38
2018-09-04T04:18:30.353Z,87.66
2018-09-04T04:19:30.595Z,87.38
2018-09-04T04:20:30.837Z,87.57
2018-09-04T04:21:31.079Z,87.57
2018-09-04T04:22:31.319Z,87.57
2018-09-04T04:23:31.563Z,87.57
2018-09-04T04:24:31.804Z,87.86
2018-09-04T04:25:32.046Z,87.66
2018-09-04T04:26:32.289Z,87.90
2018-09-04T04:27:32.531Z,87.90
2018-09-04T04:28:32.774Z,87.66
2018-09-04T04:29:33.020Z,88.09
2018-09-04T04:30:33.261Z,87.62
2018-09-04T04:31:33.547Z,88.19
2018-09-04T04:32:33.742Z,88.09
2018-09-04T04:33:33.985Z,87.95
2018-09-04T04:34:34.228Z,87.81
2018-09-04T04:35:34.467Z,88.05
2018-09-04T04:36:34.709Z,88.00
2018-09-04T04:37:34.953Z,87.52
2018-09-04T04:38:35.193Z,87.52
2018-09-04T04:39:35.439Z,87.71
2018-09-04T04:40:35.677Z,87.90
2018-09-04T04:41:35.917Z,88.00
2018-09-04T04:42:36.161Z,88.19
2018-09-04T04:43:36.401Z,88.00
2018-09-04T04:44:36.643Z,88.57
2018-09-04T04:45:36.883Z,88.19
2018-09-04T04:46:37.126Z,88.19
2018-09-04T04:47:37.367Z,87.81
2018-09-04T04:48:37.608Z,89.15
2018-09-04T04:49:37.851Z,89.34
2018-09-04T04:50:38.093Z,88.95
2018-09-04T04:51:38.334Z,88.95
2018-09-04T04:52:38.577Z,89.05
2018-09-04T04:53:38.819Z,89.15
2018-09-04T04:54:39.061Z,88.95
2018-09-04T04:55:39.306Z,89.53
2018-09-04T04:56:39.546Z,89.34
2018-09-04T04:57:39.788Z,89.34
2018-09-04T04:58:40.030Z,89.53
2018-09-04T04:59:40.272Z,89.62
2018-09-04T05:00:40.514Z,89.43
2018-09-04T05:01:40.757Z,89.72
2018-09-04T05:02:40.999Z,89.43
2018-09-04T05:03:41.241Z,89.34
2018-09-04T05:04:41.482Z,89.81
2018-09-04T05:05:41.722Z,89.91
2018-09-04T05:06:41.965Z,90.48
2018-09-04T05:07:42.209Z,90.30
2018-09-04T05:08:42.452Z,90.20
2018-09-04T05:09:42.741Z,89.81
2018-09-04T05:10:42.936Z,90.96
2018-09-04T05:11:43.200Z,90.67
2018-09-04T05:12:43.423Z,90.77
2018-09-04T05:13:43.665Z,90.58
2018-09-04T05:14:43.911Z,90.96
2018-09-04T05:15:44.149Z,91.35
2018-09-04T05:16:44.392Z,90.96
2018-09-04T05:17:44.632Z,91.53
2018-09-04T05:18:44.871Z,91.44
2018-09-04T05:19:45.120Z,91.53
2018-09-04T05:20:45.357Z,91.83
2018-09-04T05:21:45.598Z,91.92
2018-09-04T05:22:45.884Z,91.53
2018-09-04T05:23:46.083Z,91.53
2018-09-04T05:24:46.330Z,91.35
2018-09-04T05:25:46.566Z,92.02
2018-09-04T05:26:46.808Z,92.30
2018-09-04T05:27:47.051Z,92.11
2018-09-04T05:28:47.291Z,91.83
2018-09-04T05:29:47.534Z,91.73
2018-09-04T05:30:47.776Z,92.02
2018-09-04T05:31:48.016Z,91.58
2018-09-04T05:32:48.259Z,91.11
2018-09-04T05:33:48.500Z,91.20
2018-09-04T05:34:48.743Z,91.30
2018-09-04T05:35:48.987Z,90.91
2018-09-04T05:36:49.310Z,90.53
2018-09-04T05:37:49.471Z,91.11
2018-09-04T05:38:49.712Z,90.82
2018-09-04T05:39:49.957Z,90.86
2018-09-04T05:40:50.197Z,91.20
2018-09-04T05:41:50.438Z,91.39
2018-09-04T05:42:50.681Z,91.39
2018-09-04T05:43:50.922Z,91.25
2018-09-04T05:44:51.165Z,91.25
2018-09-04T05:45:51.407Z,91.44
2018-09-04T05:46:51.651Z,91.05
2018-09-04T05:47:51.892Z,91.25
2018-09-04T05:48:52.134Z,91.72
2018-09-04T05:49:52.378Z,91.53
2018-09-04T05:50:52.620Z,91.53
2018-09-04T05:51:52.862Z,91.92
2018-09-04T05:52:53.107Z,91.67
2018-09-04T05:53:53.347Z,91.53
2018-09-04T05:54:53.589Z,92.44
2018-09-04T05:55:53.835Z,92.25
2018-09-04T05:56:54.076Z,92.73
2018-09-04T05:57:54.318Z,93.40
2018-09-04T05:58:54.576Z,94.26
2018-09-04T05:59:54.847Z,94.07
2018-09-04T06:00:55.177Z,94.45
2018-09-04T06:01:55.468Z,94.07
2018-09-04T06:02:55.737Z,94.64
2018-09-04T06:03:56.008Z,95.41
2018-09-04T06:04:56.261Z,95.41
2018-09-04T06:05:56.502Z,95.70
2018-09-04T06:06:56.745Z,95.60
2018-09-04T06:07:56.988Z,95.75
2018-09-04T06:08:57.231Z,95.75
2018-09-04T06:09:57.474Z,95.84
2018-09-04T06:10:57.717Z,95.07
2018-09-04T06:11:57.960Z,95.46
2018-09-04T06:12:58.208Z,95.46
2018-09-04T06:13:58.447Z,94.40
2018-09-04T06:14:58.696Z,93.93
2018-09-04T06:15:58.936Z,92.68
2018-09-04T06:16:59.177Z,91.58
2018-09-04T06:17:59.421Z,90.67
2018-09-04T06:18:59.664Z,89.51
2018-09-04T06:19:59.968Z,88.56
2018-09-04T06:21:00.151Z,86.93
2018-09-04T06:22:00.399Z,85.01
2018-09-04T06:23:00.641Z,84.82
2018-09-04T06:24:00.884Z,83.29
2018-09-04T06:25:01.128Z,82.32
2018-09-04T06:26:01.372Z,80.79
2018-09-04T06:27:01.614Z,79.45
2018-09-04T06:28:01.859Z,78.02
2018-09-04T06:29:02.103Z,77.44
2018-09-04T06:30:02.352Z,76.29
2018-09-04T06:31:02.591Z,74.95
2018-09-04T06:32:02.833Z,74.66
2018-09-04T06:33:03.076Z,73.83
2018-09-04T06:34:03.404Z,72.30
2018-09-04T06:35:03.568Z,71.31
2018-09-04T06:36:03.811Z,70.44
2018-09-04T06:37:04.055Z,69.87
2018-09-04T06:38:04.297Z,69.87
2018-09-04T06:39:04.542Z,68.33
2018-09-04T06:40:04.787Z,67.85
2018-09-04T06:41:05.032Z,67.66
2018-09-04T06:42:05.277Z,66.16
2018-09-04T06:43:05.517Z,65.49
2018-09-04T06:44:05.761Z,65.01
2018-09-04T06:45:06.005Z,63.76
2018-09-04T06:46:06.246Z,63.64
2018-09-04T06:47:06.491Z,63.06
2018-09-04T06:48:06.734Z,62.87
2018-09-04T06:49:06.979Z,61.75
2018-09-04T06:50:07.223Z,60.99
2018-09-04T06:51:07.467Z,60.70
2018-09-04T06:52:07.711Z,60.22
2018-09-04T06:53:07.954Z,59.36
2018-09-04T06:54:08.198Z,58.87
2018-09-04T06:55:08.442Z,58.81
2018-09-04T06:56:08.686Z,58.14
2018-09-04T06:57:08.930Z,57.85
2018-09-04T06:58:09.173Z,57.56
2018-09-04T06:59:09.416Z,57.18
2018-09-04T07:00:09.663Z,56.98
2018-09-04T07:01:09.930Z,57.11
2018-09-04T07:02:10.147Z,56.92
2018-09-04T07:03:10.391Z,56.53
2018-09-04T07:04:10.637Z,56.56
2018-09-04T07:05:10.880Z,56.15
2018-09-04T07:06:11.241Z,56.53
2018-09-04T07:07:11.375Z,56.44
2018-09-04T07:08:11.617Z,56.34
2018-09-04T07:09:11.860Z,55.29
2018-09-04T07:10:12.104Z,55.57
2018-09-04T07:11:12.349Z,55.10
2018-09-04T07:12:12.593Z,54.42
2018-09-04T07:13:12.845Z,54.23
2018-09-04T07:14:13.082Z,54.23
2018-09-04T07:15:13.328Z,53.46
2018-09-04T07:16:13.574Z,52.40
2018-09-04T07:17:13.895Z,51.93
2018-09-04T07:18:14.060Z,52.12
2018-09-04T07:19:14.304Z,51.25
2018-09-04T07:20:14.549Z,50.99
2018-09-04T07:21:14.794Z,50.99
2018-09-04T07:22:15.038Z,51.28
2018-09-04T07:23:15.283Z,51.50
2018-09-04T07:24:15.582Z,51.79
2018-09-04T07:25:15.771Z,52.65
2018-09-04T07:26:16.019Z,52.94
2018-09-04T07:27:16.263Z,52.75
2018-09-04T07:28:16.509Z,51.98
2018-09-04T07:29:16.753Z,52.00
2018-09-04T07:30:16.998Z,51.91
2018-09-04T07:31:17.243Z,52.20
2018-09-04T07:32:17.490Z,55.27
2018-09-04T07:33:25.345Z,54.60
2018-09-04T07:34:18.018Z,55.37
2018-09-04T07:35:18.251Z,53.74
2018-09-04T07:36:18.512Z,52.77
2018-09-04T07:37:18.740Z,53.45
2018-09-04T07:38:18.984Z,53.16
2018-09-04T07:39:19.226Z,56.33
2018-09-04T07:40:19.472Z,55.46
2018-09-04T07:41:19.719Z,53.28
2018-09-04T07:42:19.961Z,53.50
2018-09-04T07:43:20.207Z,59.94
2018-09-04T07:44:20.452Z,59.37
2018-09-04T07:45:20.698Z,58.24
2018-09-04T07:46:20.942Z,61.22
2018-09-04T07:47:21.188Z,60.77
2018-09-04T07:48:21.434Z,61.22
2018-09-04T07:49:21.683Z,60.20
2018-09-04T07:50:21.927Z,64.89
2018-09-04T07:51:22.174Z,60.17
2018-09-04T07:52:22.419Z,60.04
2018-09-04T07:53:22.667Z,61.29
2018-09-04T07:54:22.912Z,59.59
2018-09-04T07:55:23.158Z,61.93
2018-09-04T07:56:23.407Z,65.59
2018-09-04T07:57:23.650Z,64.92
2018-09-04T07:58:23.897Z,64.63
2018-09-04T07:59:24.144Z,65.50
2018-09-04T08:00:24.390Z,64.18
2018-09-04T08:01:24.637Z,63.02
2018-09-04T08:02:24.886Z,65.91
2018-09-04T08:03:25.137Z,66.11
2018-09-04T08:04:25.381Z,67.49
2018-09-04T08:05:25.629Z,71.44
2018-09-04T08:06:25.876Z,69.74
2018-09-04T08:07:26.123Z,70.90
2018-09-04T08:08:26.371Z,73.38
2018-09-04T08:09:26.618Z,74.48
2018-09-04T08:10:26.867Z,76.29
2018-09-04T08:11:27.114Z,78.50
2018-09-04T08:12:27.368Z,79.41
2018-09-04T08:13:27.611Z,79.99
2018-09-04T08:14:27.855Z,78.69
2018-09-04T08:15:28.104Z,79.50
2018-09-04T08:16:28.415Z,80.19
2018-09-04T08:17:28.600Z,78.41
2018-09-04T08:18:28.848Z,78.11
2018-09-04T08:19:29.097Z,79.08
2018-09-04T08:20:29.418Z,78.59
2018-09-04T08:21:29.600Z,78.79
2018-09-04T08:22:29.842Z,77.92
2018-09-04T08:23:30.094Z,78.50
2018-09-04T08:24:30.339Z,78.50
2018-09-04T08:25:30.589Z,79.32
2018-09-04T08:26:30.840Z,80.65
2018-09-04T08:27:31.090Z,80.09
2018-09-04T08:28:31.340Z,79.24
2018-09-04T08:29:31.588Z,77.37
2018-09-04T08:30:31.839Z,74.74
2018-09-04T08:31:32.088Z,75.38
2018-09-04T08:32:32.338Z,74.61
2018-09-04T08:33:32.589Z,74.68
2018-09-04T08:34:32.840Z,75.07
2018-09-04T08:35:33.089Z,77.36
2018-09-04T08:36:33.339Z,77.34
2018-09-04T08:37:33.597Z,77.95
2018-09-04T08:38:33.842Z,77.22
2018-09-04T08:39:34.092Z,76.42
2018-09-04T08:40:34.343Z,75.58
2018-09-04T08:41:34.594Z,73.65
2018-09-04T08:42:34.844Z,72.12
2018-09-04T08:43:35.097Z,69.07
2018-09-04T08:44:35.350Z,68.97
2018-09-04T08:45:35.600Z,67.64
2018-09-04T08:46:35.857Z,67.38
2018-09-04T08:47:36.108Z,66.60
2018-09-04T08:48:36.356Z,66.24
2018-09-04T08:49:36.612Z,65.49
2018-09-04T08:50:36.900Z,66.76
2018-09-04T08:51:37.111Z,65.95
2018-09-04T08:52:37.364Z,66.08
2018-09-04T08:53:37.717Z,66.80
2018-09-04T08:54:37.866Z,66.53
2018-09-04T08:55:38.119Z,65.53
2018-09-04T08:56:38.372Z,67.41
2018-09-04T08:57:38.612Z,67.83
2018-09-04T08:58:38.990Z,67.68
2018-09-04T08:59:39.138Z,65.98
2018-09-04T09:00:39.393Z,66.21
2018-09-04T09:01:39.645Z,65.72
2018-09-04T09:02:39.899Z,66.50
2018-09-04T09:03:40.160Z,65.85
2018-09-04T09:04:40.406Z,64.45
2018-09-04T09:05:40.704Z,63.21
2018-09-04T09:06:40.913Z,63.48
2018-09-04T09:07:41.167Z,66.14
2018-09-04T09:08:41.422Z,68.80
2018-09-04T09:09:41.697Z,69.16
2018-09-04T09:10:41.987Z,70.75
2018-09-04T09:11:42.184Z,71.50
2018-09-04T09:12:42.437Z,71.64
2018-09-04T09:13:42.693Z,72.71
2018-09-04T09:14:42.946Z,73.02
2018-09-04T09:15:43.199Z,71.80
2018-09-04T09:16:43.485Z,69.23
2018-09-04T09:17:43.710Z,67.67
2018-09-04T09:18:43.962Z,66.50
2018-09-04T09:19:44.216Z,63.64
2018-09-04T09:20:44.469Z,61.15
2018-09-04T09:21:44.727Z,59.64
2018-09-04T09:22:45.023Z,59.81
2018-09-04T09:23:45.241Z,57.98
2018-09-04T09:24:45.487Z,59.42
2018-09-04T09:25:45.742Z,59.28
2018-09-04T09:26:45.997Z,57.93
2018-09-04T09:27:46.251Z,55.81
2018-09-04T09:28:46.505Z,55.36
2018-09-04T09:29:46.769Z,57.98
2018-09-04T09:30:47.014Z,55.85
2018-09-04T09:31:47.269Z,56.83
2018-09-04T09:32:47.523Z,56.54
2018-09-04T09:33:47.779Z,58.05
2018-09-04T09:34:48.059Z,57.98
2018-09-04T09:35:48.292Z,59.30
2018-09-04T09:36:48.606Z,63.09
2018-09-04T09:37:48.804Z,62.82
2018-09-04T09:38:49.061Z,60.47
2018-09-04T09:39:49.315Z,59.49
2018-09-04T09:40:49.570Z,59.32
2018-09-04T09:41:49.825Z,57.52
2018-09-04T09:42:50.082Z,56.54
2018-09-04T09:43:50.338Z,56.05
2018-09-04T09:44:50.592Z,54.41
2018-09-04T09:45:50.849Z,54.24
2018-09-04T09:46:51.106Z,53.82
2018-09-04T09:47:51.360Z,55.26
2018-09-04T09:48:51.616Z,55.22
2018-09-04T09:49:51.874Z,54.33
2018-09-04T09:50:52.236Z,53.23
2018-09-04T09:51:52.383Z,54.04
2018-09-04T09:52:52.692Z,54.68
2018-09-04T09:53:52.902Z,56.87
2018-09-04T09:54:53.153Z,56.26
2018-09-04T09:55:53.410Z,58.31
2018-09-04T09:56:53.665Z,57.20
2018-09-04T09:57:53.924Z,56.77
2018-09-04T09:58:54.178Z,55.92
2018-09-04T09:59:54.442Z,55.99
2018-09-04T10:00:54.710Z,55.04
2018-09-04T10:01:54.949Z,53.82
2018-09-04T10:02:55.204Z,53.03
2018-09-04T10:03:55.488Z,53.26
2018-09-04T10:04:55.718Z,51.69
2018-09-04T10:05:55.973Z,51.12
2018-09-04T10:06:56.231Z,51.25
2018-09-04T10:07:56.531Z,49.21
2018-09-04T10:08:56.744Z,49.46
2018-09-04T10:09:57.015Z,50.32
2018-09-04T10:10:57.262Z,51.49
2018-09-04T10:11:57.513Z,52.33
2018-09-04T10:12:57.770Z,51.96
2018-09-04T10:13:58.029Z,51.12
2018-09-04T10:14:58.285Z,49.92
2018-09-04T10:15:58.540Z,50.66
2018-09-04T10:16:58.798Z,50.09
2018-09-04T10:17:59.053Z,47.93
2018-09-04T10:18:59.311Z,49.68
2018-09-04T10:19:59.651Z,49.41
2018-09-04T10:20:59.826Z,49.77
2018-09-04T10:22:00.084Z,49.21
2018-09-04T10:23:00.341Z,48.13
2018-09-04T10:24:00.597Z,48.62
2018-09-04T10:25:00.856Z,48.28
2018-09-04T10:26:01.118Z,48.57
2018-09-04T10:27:01.373Z,48.21
2018-09-04T10:28:01.635Z,48.60
2018-09-04T10:29:01.889Z,47.71
2018-09-04T10:30:02.147Z,49.07
2018-09-04T10:31:02.404Z,49.53
2018-09-04T10:32:02.667Z,49.85
2018-09-04T10:33:02.920Z,49.31
2018-09-04T10:34:03.176Z,49.75
2018-09-04T10:35:03.434Z,48.86
2018-09-04T10:36:03.691Z,49.29
2018-09-04T10:37:03.947Z,48.77
2018-09-04T10:38:04.205Z,48.69
2018-09-04T10:39:04.463Z,47.93
2018-09-04T10:40:04.720Z,47.44
2018-09-04T10:41:04.977Z,46.68
2018-09-04T10:42:05.248Z,47.44
2018-09-04T10:43:05.492Z,46.97
2018-09-04T10:44:05.750Z,47.08
2018-09-04T10:45:06.009Z,50.02
2018-09-04T10:46:06.263Z,48.57
2018-09-04T10:47:06.526Z,49.73
2018-09-04T10:48:06.779Z,48.57
2018-09-04T10:49:07.037Z,48.96
2018-09-04T10:50:07.292Z,47.64
2018-09-04T10:51:07.550Z,47.52
2018-09-04T10:52:07.808Z,49.19
2018-09-04T10:53:08.066Z,48.35
2018-09-04T10:54:08.323Z,48.55
2018-09-04T10:55:08.582Z,49.99
2018-09-04T10:56:08.845Z,50.17
2018-09-04T10:57:09.100Z,51.90
2018-09-04T10:58:09.358Z,52.96
2018-09-04T10:59:09.616Z,53.42
2018-09-04T11:00:09.874Z,53.88
2018-09-04T11:01:10.132Z,53.91
2018-09-04T11:02:10.392Z,55.42
2018-09-04T11:03:10.646Z,56.92
2018-09-04T11:04:10.904Z,54.52
2018-09-04T11:05:11.161Z,51.66
2018-09-04T11:06:11.417Z,50.76
2018-09-04T11:07:11.673Z,51.83
2018-09-04T11:08:11.935Z,53.42
2018-09-04T11:09:12.207Z,55.35
2018-09-04T11:10:12.447Z,55.42
2018-09-04T11:11:12.706Z,55.45
2018-09-04T11:12:12.963Z,54.50
2018-09-04T11:13:13.220Z,54.83
2018-09-04T11:14:13.478Z,59.02
2018-09-04T11:15:13.734Z,57.23
2018-09-04T11:16:13.993Z,60.56
2018-09-04T11:17:14.253Z,60.11
2018-09-04T11:18:14.513Z,61.96
2018-09-04T11:19:14.768Z,61.72
2018-09-04T11:20:15.024Z,59.38
2018-09-04T11:21:15.280Z,56.52
2018-09-04T11:22:15.535Z,55.28
2018-09-04T11:23:15.791Z,53.11
2018-09-04T11:24:16.047Z,53.20
2018-09-04T11:25:16.302Z,51.91
2018-09-04T11:26:16.558Z,50.54
2018-09-04T11:27:16.813Z,48.43
2018-09-04T11:28:17.069Z,48.08
2018-09-04T11:29:17.323Z,48.65
2018-09-04T11:30:17.579Z,49.99
2018-09-04T11:31:17.834Z,49.14
2018-09-04T11:32:18.090Z,49.46
2018-09-04T11:33:18.347Z,49.16
2018-09-04T11:34:18.605Z,48.11
2018-09-04T11:35:18.871Z,48.50
2018-09-04T11:36:19.120Z,47.71
2018-09-04T11:37:19.376Z,48.57
2018-09-04T11:38:19.638Z,47.61
2018-09-04T11:39:19.890Z,45.97
2018-09-04T11:40:20.146Z,46.36
2018-09-04T11:41:20.401Z,47.59
2018-09-04T11:42:20.660Z,49.14
2018-09-04T11:43:20.917Z,47.13
2018-09-04T11:44:21.175Z,47.54
2018-09-04T11:45:21.430Z,47.15
2018-09-04T11:46:21.690Z,47.79
2018-09-04T11:47:21.947Z,47.39
2018-09-04T11:48:22.202Z,45.40
2018-09-04T11:49:22.459Z,46.17
2018-09-04T11:50:22.717Z,47.84
2018-09-04T11:51:22.974Z,48.25
2018-09-04T11:52:23.264Z,49.07
2018-09-04T11:53:23.491Z,52.56
2018-09-04T11:54:23.751Z,53.38
2018-09-04T11:55:24.008Z,51.73
2018-09-04T11:56:24.264Z,49.14
2018-09-04T11:57:24.523Z,50.71
2018-09-04T11:58:24.827Z,53.39
2018-09-04T11:59:25.038Z,53.39
2018-09-04T12:00:25.296Z,51.12
2018-09-04T12:01:25.553Z,49.65
2018-09-04T12:02:25.812Z,54.83
2018-09-04T12:03:26.070Z,57.78
2018-09-04T12:04:26.325Z,55.16
2018-09-04T12:05:26.580Z,49.77
2018-09-04T12:06:26.842Z,47.59
2018-09-04T12:07:27.091Z,44.02
2018-09-04T12:08:27.346Z,43.26
2018-09-04T12:09:27.602Z,41.73
2018-09-04T12:10:27.858Z,41.85
2018-09-04T12:11:28.116Z,41.06
2018-09-04T12:12:28.544Z,40.27
2018-09-04T12:13:28.630Z,41.85
2018-09-04T12:14:28.892Z,42.02
2018-09-04T12:15:29.144Z,42.36
2018-09-04T12:16:29.403Z,41.00
2018-09-04T12:17:29.660Z,39.48
2018-09-04T12:18:29.917Z,39.48
2018-09-04T12:19:30.175Z,39.28
2018-09-04T12:20:30.432Z,39.70
2018-09-04T12:21:30.691Z,38.21
2018-09-04T12:22:30.946Z,38.14
2018-09-04T12:23:31.193Z,38.14
2018-09-04T12:24:31.453Z,37.24
2018-09-04T12:25:31.711Z,40.78
2018-09-04T12:26:31.969Z,43.35
2018-09-04T12:27:32.228Z,45.39
2018-09-04T12:28:32.485Z,47.47
2018-09-04T12:29:32.744Z,48.50
2018-09-04T12:30:33.002Z,49.63
2018-09-04T12:31:33.259Z,51.63
2018-09-04T12:32:33.518Z,51.61
2018-09-04T12:33:33.773Z,49.65
2018-09-04T12:34:34.030Z,51.17
2018-09-04T12:35:34.285Z,51.82
2018-09-04T12:36:34.602Z,51.56
2018-09-04T12:37:34.801Z,51.34
2018-09-04T12:38:35.057Z,50.95
2018-09-04T12:39:35.314Z,47.89
2018-09-04T12:40:35.570Z,45.42
2018-09-04T12:41:35.827Z,46.06
2018-09-04T12:42:36.117Z,47.41
2018-09-04T12:43:36.339Z,47.11
2018-09-04T12:44:36.595Z,47.28
2018-09-04T12:45:36.843Z,46.57
2018-09-04T12:46:37.099Z,48.70
2018-09-04T12:47:37.355Z,48.56
2018-09-04T12:48:37.683Z,52.00
2018-09-04T12:49:37.866Z,50.20
2018-09-04T12:50:38.122Z,48.72
2018-09-04T12:51:38.384Z,48.19
2018-09-04T12:52:38.637Z,46.62
2018-09-04T12:53:38.895Z,45.02
2018-09-04T12:54:39.164Z,42.88
2018-09-04T12:55:39.400Z,44.38
2018-09-04T12:56:39.659Z,45.40
2018-09-04T12:57:39.913Z,47.48
2018-09-04T12:58:40.172Z,48.41
2018-09-04T12:59:40.427Z,49.73
2018-09-04T13:00:40.678Z,51.39
2018-09-04T13:01:40.934Z,49.92
2018-09-04T13:02:41.187Z,47.28
2018-09-04T13:03:41.442Z,45.95
2018-09-04T13:04:41.697Z,42.88
2018-09-04T13:05:41.951Z,40.88
2018-09-04T13:06:42.212Z,38.76
2018-09-04T13:07:42.462Z,40.64
2018-09-04T13:08:42.718Z,41.41
2018-09-04T13:09:42.973Z,40.70
2018-09-04T13:10:43.228Z,40.78